IBE09KB LEMD-LDSP
Flight info
| Callsign | IBE09KB |
|---|---|
| Flight time | 2h 11m |
| Altitude | 36000 |
| Route | NANDO M871 MABUX T257 LASPO M871 PTC DCT MHN DCT MORSS DCT BAVON DCT ORKUM DCT ELSAG DCT ALG DCT VAPUP |
| Aircraft | A320/M-SDE3FGHIRWY/LB1 |
Departure
| Time | 2026-05-04 14:12 |
|---|---|
| Airport | Adolfo Suárez Madrid–Barajas Airport (LEMD) |
Arrival
| Time | 2026-05-04 16:24 |
|---|---|
| Airport | Split Saint Jerome Airport (LDSP) |
| Time | Latitude | Longitude | Altitude | Speed | Heading |
|---|---|---|---|---|---|
| 2026-05-04 13:23 | 40.49444 | -3.58971 | 2022 ft | 0 kts | 270° |
| 2026-05-04 13:57 | 40.49444 | -3.58959 | 2036 ft | 4 kts | 270° |
| 2026-05-04 13:57 | 40.49444 | -3.58928 | 2028 ft | 2 kts | 270° |
| 2026-05-04 13:58 | 40.49480 | -3.58884 | 2028 ft | 0 kts | 180° |
| 2026-05-04 14:01 | 40.49455 | -3.58884 | 2024 ft | 4 kts | 180° |
| 2026-05-04 14:02 | 40.49418 | -3.58884 | 2025 ft | 7 kts | 180° |
| 2026-05-04 14:02 | 40.49363 | -3.58882 | 2026 ft | 9 kts | 179° |
| 2026-05-04 14:02 | 40.49298 | -3.58882 | 2028 ft | 10 kts | 180° |
| 2026-05-04 14:02 | 40.49224 | -3.58882 | 2022 ft | 11 kts | 180° |
| 2026-05-04 14:03 | 40.49144 | -3.58883 | 2022 ft | 12 kts | 179° |
| 2026-05-04 14:03 | 40.49056 | -3.58881 | 2022 ft | 13 kts | 180° |
| 2026-05-04 14:03 | 40.48964 | -3.58881 | 2029 ft | 14 kts | 180° |
| 2026-05-04 14:03 | 40.48865 | -3.58879 | 2022 ft | 15 kts | 179° |
| 2026-05-04 14:04 | 40.48758 | -3.58777 | 2022 ft | 10 kts | 88° |
| 2026-05-04 14:04 | 40.48759 | -3.58677 | 2022 ft | 11 kts | 91° |
| 2026-05-04 14:04 | 40.48759 | -3.58584 | 2022 ft | 10 kts | 89° |
| 2026-05-04 14:05 | 40.48761 | -3.58368 | 2014 ft | 14 kts | 90° |
| 2026-05-04 14:05 | 40.48761 | -3.58233 | 2009 ft | 16 kts | 90° |
| 2026-05-04 14:05 | 40.48761 | -3.58081 | 2004 ft | 17 kts | 90° |
| 2026-05-04 14:06 | 40.48762 | -3.57973 | 2000 ft | 18 kts | 90° |
| 2026-05-04 14:06 | 40.48762 | -3.57798 | 1994 ft | 20 kts | 89° |
| 2026-05-04 14:06 | 40.48763 | -3.57617 | 2001 ft | 19 kts | 90° |
| 2026-05-04 14:06 | 40.48764 | -3.57443 | 1988 ft | 19 kts | 89° |
| 2026-05-04 14:07 | 40.48765 | -3.57270 | 1984 ft | 19 kts | 89° |
| 2026-05-04 14:07 | 40.48765 | -3.57097 | 1981 ft | 19 kts | 90° |
| 2026-05-04 14:07 | 40.48765 | -3.56924 | 1982 ft | 19 kts | 89° |
| 2026-05-04 14:07 | 40.48768 | -3.56753 | 1978 ft | 19 kts | 90° |
| 2026-05-04 14:08 | 40.48768 | -3.56583 | 1971 ft | 19 kts | 90° |
| 2026-05-04 14:08 | 40.48768 | -3.56408 | 1966 ft | 20 kts | 90° |
| 2026-05-04 14:08 | 40.48768 | -3.56226 | 1961 ft | 20 kts | 89° |
| 2026-05-04 14:08 | 40.48827 | -3.56139 | 1959 ft | 13 kts | 4° |
| 2026-05-04 14:09 | 40.49047 | -3.56140 | 1959 ft | 18 kts | 0° |
| 2026-05-04 14:09 | 40.49177 | -3.56140 | 1958 ft | 19 kts | 0° |
| 2026-05-04 14:10 | 40.49419 | -3.56142 | 1959 ft | 16 kts | 360° |
| 2026-05-04 14:10 | 40.49521 | -3.56142 | 1959 ft | 13 kts | 4° |
| 2026-05-04 14:10 | 40.49556 | -3.56081 | 1959 ft | 7 kts | 88° |
| 2026-05-04 14:10 | 40.49555 | -3.56019 | 1960 ft | 7 kts | 92° |
| 2026-05-04 14:11 | 40.49554 | -3.55940 | 1960 ft | 11 kts | 90° |
| 2026-05-04 14:11 | 40.49492 | -3.55790 | 1963 ft | 11 kts | 142° |
| 2026-05-04 14:11 | 40.49345 | -3.55647 | 1962 ft | 57 kts | 144° |
| 2026-05-04 14:12 | 40.48845 | -3.55137 | 1953 ft | 122 kts | 142° |
| 2026-05-04 14:12 | 40.48029 | -3.54314 | 1932 ft | 171 kts | 142° |
| 2026-05-04 14:12 | 40.46005 | -3.52265 | 2979 ft | 184 kts | 148° |
| 2026-05-04 14:13 | 40.44981 | -3.51244 | 3633 ft | 188 kts | 148° |
| 2026-05-04 14:13 | 40.43893 | -3.50167 | 4008 ft | 205 kts | 146° |
| 2026-05-04 14:13 | 40.42694 | -3.48982 | 4262 ft | 227 kts | 144° |
| 2026-05-04 14:13 | 40.41376 | -3.47670 | 4541 ft | 250 kts | 147° |
| 2026-05-04 14:14 | 40.39927 | -3.46224 | 4879 ft | 273 kts | 147° |
| 2026-05-04 14:14 | 40.36856 | -3.43128 | 6442 ft | 281 kts | 145° |
| 2026-05-04 14:14 | 40.35224 | -3.41725 | 7257 ft | 281 kts | 154° |
| 2026-05-04 14:15 | 40.31769 | -3.39208 | 8868 ft | 287 kts | 154° |
| 2026-05-04 14:15 | 40.28785 | -3.35588 | 10434 ft | 302 kts | 131° |
| 2026-05-04 14:16 | 40.25988 | -3.30921 | 10854 ft | 349 kts | 131° |
| 2026-05-04 14:16 | 40.24468 | -3.28329 | 11145 ft | 367 kts | 127° |
| 2026-05-04 14:17 | 40.22497 | -3.22089 | 12367 ft | 382 kts | 108° |
| 2026-05-04 14:17 | 40.21769 | -3.18731 | 12911 ft | 386 kts | 108° |
| 2026-05-04 14:17 | 40.20263 | -3.11921 | 14118 ft | 394 kts | 108° |
| 2026-05-04 14:18 | 40.19488 | -3.08459 | 14673 ft | 399 kts | 108° |
| 2026-05-04 14:18 | 40.17916 | -3.01430 | 15776 ft | 407 kts | 108° |
| 2026-05-04 14:19 | 40.16316 | -2.94255 | 16873 ft | 414 kts | 108° |
| 2026-05-04 14:19 | 40.15508 | -2.90621 | 17411 ft | 418 kts | 108° |
| 2026-05-04 14:19 | 40.14693 | -2.86956 | 17933 ft | 422 kts | 108° |
| 2026-05-04 14:19 | 40.13868 | -2.83254 | 18419 ft | 426 kts | 108° |
| 2026-05-04 14:20 | 40.13033 | -2.79522 | 18853 ft | 429 kts | 108° |
| 2026-05-04 14:20 | 40.12189 | -2.75764 | 19308 ft | 433 kts | 108° |
| 2026-05-04 14:20 | 40.11334 | -2.71981 | 19765 ft | 436 kts | 109° |
| 2026-05-04 14:21 | 40.09604 | -2.64339 | 20662 ft | 441 kts | 109° |
| 2026-05-04 14:21 | 40.08731 | -2.60495 | 21117 ft | 444 kts | 109° |
| 2026-05-04 14:21 | 40.07851 | -2.56616 | 21549 ft | 447 kts | 109° |
| 2026-05-04 14:21 | 40.06966 | -2.52714 | 21967 ft | 450 kts | 109° |
| 2026-05-04 14:22 | 40.06074 | -2.48784 | 22375 ft | 453 kts | 109° |
| 2026-05-04 14:22 | 40.05174 | -2.44830 | 22786 ft | 456 kts | 109° |
| 2026-05-04 14:22 | 40.04267 | -2.40853 | 23180 ft | 459 kts | 110° |
| 2026-05-04 14:22 | 40.03352 | -2.36854 | 23563 ft | 462 kts | 110° |
| 2026-05-04 14:23 | 40.01493 | -2.28774 | 24183 ft | 467 kts | 110° |
| 2026-05-04 14:23 | 40.00566 | -2.24764 | 24490 ft | 470 kts | 111° |
| 2026-05-04 14:23 | 39.99617 | -2.20666 | 24755 ft | 474 kts | 112° |
| 2026-05-04 14:24 | 39.98664 | -2.16545 | 25045 ft | 476 kts | 111° |
| 2026-05-04 14:24 | 39.97704 | -2.12395 | 25338 ft | 479 kts | 111° |
| 2026-05-04 14:24 | 39.96737 | -2.08222 | 25645 ft | 482 kts | 112° |
| 2026-05-04 14:24 | 39.95764 | -2.04032 | 25949 ft | 484 kts | 112° |
| 2026-05-04 14:25 | 39.94785 | -1.99820 | 26260 ft | 487 kts | 112° |
| 2026-05-04 14:25 | 39.92807 | -1.91344 | 26843 ft | 491 kts | 112° |
| 2026-05-04 14:25 | 39.91809 | -1.87079 | 27093 ft | 493 kts | 112° |
| 2026-05-04 14:26 | 39.90806 | -1.82799 | 27360 ft | 495 kts | 113° |
| 2026-05-04 14:26 | 39.89798 | -1.78505 | 27632 ft | 497 kts | 113° |
| 2026-05-04 14:26 | 39.88783 | -1.74191 | 27891 ft | 499 kts | 113° |
| 2026-05-04 14:26 | 39.87765 | -1.69864 | 28172 ft | 501 kts | 113° |
| 2026-05-04 14:27 | 39.86743 | -1.65519 | 28416 ft | 503 kts | 113° |
| 2026-05-04 14:27 | 39.85713 | -1.61156 | 28667 ft | 506 kts | 113° |
| 2026-05-04 14:27 | 39.84676 | -1.56777 | 28989 ft | 506 kts | 113° |
| 2026-05-04 14:27 | 39.83639 | -1.52409 | 29309 ft | 505 kts | 113° |
| 2026-05-04 14:28 | 39.82601 | -1.48048 | 29698 ft | 504 kts | 113° |
| 2026-05-04 14:28 | 39.81566 | -1.43700 | 30099 ft | 503 kts | 113° |
| 2026-05-04 14:28 | 39.80515 | -1.39370 | 30405 ft | 500 kts | 116° |
| 2026-05-04 14:28 | 39.79114 | -1.35292 | 30668 ft | 489 kts | 126° |
| 2026-05-04 14:29 | 39.75062 | -1.28493 | 31328 ft | 467 kts | 144° |
| 2026-05-04 14:29 | 39.69893 | -1.23763 | 31890 ft | 446 kts | 162° |
| 2026-05-04 14:30 | 39.67127 | -1.22115 | 32188 ft | 443 kts | 164° |
| 2026-05-04 14:30 | 39.64320 | -1.20476 | 32476 ft | 442 kts | 164° |
| 2026-05-04 14:30 | 39.58753 | -1.17080 | 33117 ft | 447 kts | 158° |
| 2026-05-04 14:31 | 39.56177 | -1.14755 | 33391 ft | 457 kts | 148° |
| 2026-05-04 14:31 | 39.52006 | -1.08355 | 34003 ft | 477 kts | 127° |
| 2026-05-04 14:32 | 39.48735 | -1.00862 | 34494 ft | 478 kts | 127° |
| 2026-05-04 14:32 | 39.47097 | -0.97120 | 34727 ft | 478 kts | 127° |
| 2026-05-04 14:32 | 39.45456 | -0.93378 | 34937 ft | 478 kts | 127° |
| 2026-05-04 14:32 | 39.43814 | -0.89639 | 35148 ft | 478 kts | 127° |
| 2026-05-04 14:33 | 39.42169 | -0.85891 | 35339 ft | 478 kts | 127° |
| 2026-05-04 14:33 | 39.40529 | -0.82149 | 35524 ft | 479 kts | 127° |
| 2026-05-04 14:33 | 39.38885 | -0.78408 | 35742 ft | 478 kts | 127° |
| 2026-05-04 14:33 | 39.37237 | -0.74672 | 35867 ft | 479 kts | 127° |
| 2026-05-04 14:34 | 39.35579 | -0.70936 | 35915 ft | 480 kts | 127° |
| 2026-05-04 14:34 | 39.32247 | -0.63459 | 35914 ft | 481 kts | 127° |
| 2026-05-04 14:35 | 39.29470 | -0.55528 | 35909 ft | 495 kts | 111° |
| 2026-05-04 14:35 | 39.28685 | -0.46594 | 35901 ft | 511 kts | 90° |
| 2026-05-04 14:36 | 39.29191 | -0.37434 | 35904 ft | 512 kts | 90° |
| 2026-05-04 14:36 | 39.29660 | -0.28268 | 35909 ft | 512 kts | 90° |
| 2026-05-04 14:37 | 39.30118 | -0.19101 | 35912 ft | 512 kts | 90° |
| 2026-05-04 14:37 | 39.30590 | -0.09929 | 35913 ft | 512 kts | 90° |
| 2026-05-04 14:38 | 39.31062 | -0.00749 | 35912 ft | 512 kts | 90° |
| 2026-05-04 14:38 | 39.31517 | 0.08421 | 35898 ft | 512 kts | 91° |
| 2026-05-04 14:39 | 39.31962 | 0.17609 | 35896 ft | 513 kts | 91° |
| 2026-05-04 14:39 | 39.32407 | 0.26817 | 35907 ft | 513 kts | 91° |
| 2026-05-04 14:40 | 39.33046 | 0.40561 | 35885 ft | 514 kts | 91° |
| 2026-05-04 14:40 | 39.33469 | 0.49774 | 35902 ft | 514 kts | 91° |
| 2026-05-04 14:41 | 39.33886 | 0.58990 | 35911 ft | 514 kts | 91° |
| 2026-05-04 14:42 | 39.34693 | 0.77417 | 35896 ft | 514 kts | 91° |
| 2026-05-04 14:42 | 39.35087 | 0.86632 | 35939 ft | 513 kts | 91° |
| 2026-05-04 14:43 | 39.35473 | 0.95836 | 35942 ft | 513 kts | 91° |
| 2026-05-04 14:43 | 39.35856 | 1.05033 | 35940 ft | 512 kts | 91° |
| 2026-05-04 14:44 | 39.36230 | 1.14226 | 35943 ft | 512 kts | 92° |
| 2026-05-04 14:44 | 39.36589 | 1.23418 | 35934 ft | 512 kts | 92° |
| 2026-05-04 14:45 | 39.36944 | 1.32605 | 35935 ft | 512 kts | 92° |
| 2026-05-04 14:45 | 39.37293 | 1.41723 | 35941 ft | 512 kts | 92° |
| 2026-05-04 14:46 | 39.37639 | 1.50911 | 35942 ft | 512 kts | 92° |
| 2026-05-04 14:46 | 39.37973 | 1.60102 | 35935 ft | 512 kts | 92° |
| 2026-05-04 14:47 | 39.38293 | 1.69285 | 35945 ft | 512 kts | 92° |
| 2026-05-04 14:47 | 39.38607 | 1.78474 | 35949 ft | 512 kts | 92° |
| 2026-05-04 14:48 | 39.38917 | 1.87659 | 35947 ft | 512 kts | 92° |
| 2026-05-04 14:48 | 39.39225 | 1.96849 | 35937 ft | 511 kts | 92° |
| 2026-05-04 14:49 | 39.39528 | 2.06018 | 35955 ft | 511 kts | 92° |
| 2026-05-04 14:49 | 39.39813 | 2.15187 | 35971 ft | 510 kts | 92° |
| 2026-05-04 14:50 | 39.40093 | 2.24348 | 35970 ft | 509 kts | 92° |
| 2026-05-04 14:50 | 39.40367 | 2.33485 | 35966 ft | 509 kts | 92° |
| 2026-05-04 14:51 | 39.40640 | 2.42621 | 35980 ft | 508 kts | 92° |
| 2026-05-04 14:51 | 39.40904 | 2.51743 | 35986 ft | 507 kts | 92° |
| 2026-05-04 14:52 | 39.41155 | 2.60851 | 35986 ft | 507 kts | 92° |
| 2026-05-04 14:52 | 39.41397 | 2.69953 | 35960 ft | 507 kts | 92° |
| 2026-05-04 14:53 | 39.41628 | 2.79056 | 35972 ft | 507 kts | 92° |
| 2026-05-04 14:53 | 39.41862 | 2.88158 | 35978 ft | 506 kts | 92° |
| 2026-05-04 14:54 | 39.42089 | 2.97263 | 35962 ft | 506 kts | 92° |
| 2026-05-04 14:54 | 39.42307 | 3.06357 | 35936 ft | 506 kts | 92° |
| 2026-05-04 14:55 | 39.42513 | 3.15380 | 35965 ft | 504 kts | 92° |
| 2026-05-04 14:55 | 39.43309 | 3.24405 | 35977 ft | 510 kts | 77° |
| 2026-05-04 14:56 | 39.46054 | 3.32861 | 35965 ft | 513 kts | 59° |
| 2026-05-04 14:56 | 39.49723 | 3.40778 | 35965 ft | 511 kts | 59° |
| 2026-05-04 14:57 | 39.51516 | 3.44687 | 35955 ft | 500 kts | 60° |
| 2026-05-04 14:57 | 39.53278 | 3.48539 | 35971 ft | 496 kts | 60° |
| 2026-05-04 14:57 | 39.56188 | 3.54921 | 35959 ft | 495 kts | 60° |
| 2026-05-04 14:58 | 39.59678 | 3.62597 | 35959 ft | 494 kts | 60° |
| 2026-05-04 14:58 | 39.63177 | 3.70280 | 35953 ft | 494 kts | 60° |
| 2026-05-04 14:59 | 39.66680 | 3.77955 | 35954 ft | 495 kts | 60° |
| 2026-05-04 15:00 | 39.71954 | 3.89585 | 35959 ft | 505 kts | 60° |
| 2026-05-04 15:00 | 39.75541 | 3.97539 | 35965 ft | 514 kts | 60° |
| 2026-05-04 15:01 | 39.80968 | 4.09595 | 35973 ft | 516 kts | 60° |
| 2026-05-04 15:01 | 39.84578 | 4.17654 | 35975 ft | 516 kts | 61° |
| 2026-05-04 15:02 | 39.87323 | 4.26217 | 35965 ft | 511 kts | 77° |
| 2026-05-04 15:02 | 39.89179 | 4.35151 | 35969 ft | 512 kts | 77° |
| 2026-05-04 15:03 | 39.91035 | 4.44098 | 35971 ft | 512 kts | 77° |
| 2026-05-04 15:03 | 39.92883 | 4.53053 | 35971 ft | 512 kts | 77° |
| 2026-05-04 15:04 | 39.94725 | 4.62012 | 35973 ft | 512 kts | 78° |
| 2026-05-04 15:04 | 39.96583 | 4.70969 | 35970 ft | 512 kts | 77° |
| 2026-05-04 15:05 | 39.98616 | 4.79867 | 35979 ft | 513 kts | 75° |
| 2026-05-04 15:05 | 40.00719 | 4.88753 | 35978 ft | 512 kts | 75° |
| 2026-05-04 15:06 | 40.02770 | 4.97650 | 35947 ft | 512 kts | 76° |
| 2026-05-04 15:07 | 40.05771 | 5.11027 | 35960 ft | 512 kts | 76° |
| 2026-05-04 15:07 | 40.07760 | 5.19947 | 35964 ft | 512 kts | 76° |
| 2026-05-04 15:08 | 40.09764 | 5.28863 | 35967 ft | 512 kts | 76° |
| 2026-05-04 15:08 | 40.11763 | 5.37788 | 35954 ft | 512 kts | 76° |
| 2026-05-04 15:09 | 40.13732 | 5.46658 | 35977 ft | 512 kts | 76° |
| 2026-05-04 15:09 | 40.15701 | 5.55597 | 35981 ft | 512 kts | 76° |
| 2026-05-04 15:10 | 40.18658 | 5.69008 | 35981 ft | 512 kts | 76° |
| 2026-05-04 15:11 | 40.21595 | 5.82433 | 35966 ft | 512 kts | 76° |
| 2026-05-04 15:11 | 40.23544 | 5.91397 | 35975 ft | 512 kts | 76° |
| 2026-05-04 15:12 | 40.25479 | 6.00363 | 35974 ft | 512 kts | 76° |
| 2026-05-04 15:12 | 40.27412 | 6.09341 | 35959 ft | 512 kts | 76° |
| 2026-05-04 15:13 | 40.29356 | 6.18321 | 35966 ft | 512 kts | 76° |
| 2026-05-04 15:13 | 40.31281 | 6.27315 | 35985 ft | 513 kts | 76° |
| 2026-05-04 15:14 | 40.33193 | 6.36311 | 35982 ft | 513 kts | 76° |
| 2026-05-04 15:14 | 40.35095 | 6.45324 | 35988 ft | 513 kts | 76° |
| 2026-05-04 15:15 | 40.37012 | 6.54340 | 35978 ft | 514 kts | 76° |
| 2026-05-04 15:15 | 40.38924 | 6.63380 | 35979 ft | 514 kts | 76° |
| 2026-05-04 15:16 | 40.41766 | 6.76960 | 35990 ft | 515 kts | 76° |
| 2026-05-04 15:17 | 40.44597 | 6.90566 | 35989 ft | 515 kts | 75° |
| 2026-05-04 15:17 | 40.47411 | 7.04167 | 36017 ft | 515 kts | 75° |
| 2026-05-04 15:18 | 40.49279 | 7.13239 | 36016 ft | 514 kts | 75° |
| 2026-05-04 15:19 | 40.52036 | 7.26788 | 36024 ft | 514 kts | 76° |
| 2026-05-04 15:19 | 40.54797 | 7.40409 | 36023 ft | 514 kts | 76° |
| 2026-05-04 15:20 | 40.56487 | 7.49538 | 36012 ft | 513 kts | 83° |
| 2026-05-04 15:20 | 40.57308 | 7.58837 | 36013 ft | 512 kts | 85° |
| 2026-05-04 15:21 | 40.58113 | 7.68149 | 36013 ft | 512 kts | 84° |
| 2026-05-04 15:22 | 40.59315 | 7.82116 | 36025 ft | 512 kts | 85° |
| 2026-05-04 15:22 | 40.60491 | 7.96088 | 36043 ft | 512 kts | 85° |
| 2026-05-04 15:23 | 40.61263 | 8.05409 | 36055 ft | 512 kts | 84° |
| 2026-05-04 15:23 | 40.62028 | 8.14716 | 36069 ft | 512 kts | 84° |
| 2026-05-04 15:24 | 40.63196 | 8.23944 | 36084 ft | 512 kts | 72° |
| 2026-05-04 15:24 | 40.66012 | 8.32508 | 36070 ft | 510 kts | 60° |
| 2026-05-04 15:25 | 40.69268 | 8.40803 | 36062 ft | 509 kts | 60° |
| 2026-05-04 15:26 | 40.74114 | 8.53262 | 36055 ft | 509 kts | 60° |
| 2026-05-04 15:26 | 40.78931 | 8.65658 | 36060 ft | 508 kts | 60° |
| 2026-05-04 15:27 | 40.83778 | 8.78185 | 36058 ft | 508 kts | 60° |
| 2026-05-04 15:28 | 40.88562 | 8.90616 | 36064 ft | 509 kts | 61° |
| 2026-05-04 15:29 | 40.93354 | 9.03125 | 36055 ft | 508 kts | 61° |
| 2026-05-04 15:30 | 41.04507 | 9.32389 | 36055 ft | 510 kts | 61° |
| 2026-05-04 15:31 | 41.09238 | 9.44919 | 36060 ft | 511 kts | 61° |
| 2026-05-04 15:32 | 41.17158 | 9.65997 | 36092 ft | 510 kts | 60° |
| 2026-05-04 15:34 | 41.25042 | 9.87113 | 36076 ft | 511 kts | 60° |
| 2026-05-04 15:34 | 41.29753 | 9.99816 | 36090 ft | 510 kts | 60° |
| 2026-05-04 15:35 | 41.34449 | 10.12517 | 36106 ft | 510 kts | 60° |
| 2026-05-04 15:36 | 41.39096 | 10.25183 | 36104 ft | 510 kts | 60° |
| 2026-05-04 15:36 | 41.42205 | 10.33651 | 36103 ft | 509 kts | 60° |
| 2026-05-04 15:37 | 41.45305 | 10.42127 | 36109 ft | 509 kts | 60° |
| 2026-05-04 15:37 | 41.48397 | 10.50614 | 36109 ft | 508 kts | 60° |
| 2026-05-04 15:38 | 41.51478 | 10.59093 | 36113 ft | 508 kts | 60° |
| 2026-05-04 15:38 | 41.54538 | 10.67564 | 36126 ft | 507 kts | 60° |
| 2026-05-04 15:39 | 41.57591 | 10.76028 | 36121 ft | 506 kts | 60° |
| 2026-05-04 15:40 | 41.62155 | 10.88725 | 36122 ft | 505 kts | 60° |
| 2026-05-04 15:40 | 41.65189 | 10.97188 | 36122 ft | 505 kts | 60° |
| 2026-05-04 15:41 | 41.68214 | 11.05648 | 36135 ft | 504 kts | 60° |
| 2026-05-04 15:41 | 41.71230 | 11.14121 | 36131 ft | 504 kts | 60° |
| 2026-05-04 15:42 | 41.74235 | 11.22577 | 36126 ft | 503 kts | 60° |
| 2026-05-04 15:42 | 41.77235 | 11.31048 | 36122 ft | 503 kts | 60° |
| 2026-05-04 15:43 | 41.80222 | 11.39507 | 36144 ft | 502 kts | 60° |
| 2026-05-04 15:43 | 41.83197 | 11.47965 | 36159 ft | 501 kts | 60° |
| 2026-05-04 15:44 | 41.86166 | 11.56419 | 36149 ft | 501 kts | 60° |
| 2026-05-04 15:44 | 41.88632 | 11.63446 | 36155 ft | 501 kts | 60° |
| 2026-05-04 15:45 | 41.92056 | 11.73283 | 36178 ft | 500 kts | 60° |
| 2026-05-04 15:45 | 41.94986 | 11.81746 | 36213 ft | 499 kts | 60° |
| 2026-05-04 15:46 | 41.97442 | 11.88830 | 36229 ft | 499 kts | 60° |
| 2026-05-04 15:46 | 42.00372 | 11.97276 | 36259 ft | 499 kts | 60° |
| 2026-05-04 15:47 | 42.03291 | 12.05740 | 36261 ft | 499 kts | 60° |
| 2026-05-04 15:47 | 42.06190 | 12.14200 | 36177 ft | 496 kts | 60° |
| 2026-05-04 15:47 | 42.07632 | 12.18413 | 35551 ft | 495 kts | 60° |
| 2026-05-04 15:48 | 42.09059 | 12.22579 | 34754 ft | 497 kts | 60° |
| 2026-05-04 15:48 | 42.10507 | 12.26802 | 34318 ft | 499 kts | 60° |
| 2026-05-04 15:48 | 42.13450 | 12.35400 | 34154 ft | 504 kts | 60° |
| 2026-05-04 15:49 | 42.16338 | 12.43876 | 34139 ft | 504 kts | 60° |
| 2026-05-04 15:49 | 42.19244 | 12.52449 | 34148 ft | 502 kts | 60° |
| 2026-05-04 15:50 | 42.22109 | 12.60967 | 34153 ft | 502 kts | 60° |
| 2026-05-04 15:50 | 42.24987 | 12.69544 | 34156 ft | 502 kts | 60° |
| 2026-05-04 15:51 | 42.27895 | 12.78181 | 34157 ft | 502 kts | 60° |
| 2026-05-04 15:51 | 42.30743 | 12.86676 | 34155 ft | 499 kts | 60° |
| 2026-05-04 15:52 | 42.33609 | 12.95267 | 34175 ft | 498 kts | 60° |
| 2026-05-04 15:52 | 42.36431 | 13.03742 | 34152 ft | 498 kts | 60° |
| 2026-05-04 15:53 | 42.39265 | 13.12288 | 34160 ft | 498 kts | 60° |
| 2026-05-04 15:53 | 42.42082 | 13.20825 | 34123 ft | 495 kts | 61° |
| 2026-05-04 15:54 | 42.44880 | 13.29320 | 34141 ft | 494 kts | 61° |
| 2026-05-04 15:54 | 42.47667 | 13.37809 | 34119 ft | 492 kts | 62° |
| 2026-05-04 15:55 | 42.50446 | 13.46286 | 34120 ft | 492 kts | 62° |
| 2026-05-04 15:55 | 42.53220 | 13.54758 | 34107 ft | 490 kts | 62° |
| 2026-05-04 15:56 | 42.55966 | 13.63202 | 34108 ft | 489 kts | 62° |
| 2026-05-04 15:56 | 42.58703 | 13.71659 | 34098 ft | 489 kts | 62° |
| 2026-05-04 15:57 | 42.61430 | 13.80111 | 34093 ft | 487 kts | 63° |
| 2026-05-04 15:57 | 42.64135 | 13.88497 | 34095 ft | 485 kts | 63° |
| 2026-05-04 15:58 | 42.66758 | 13.96664 | 33900 ft | 485 kts | 63° |
| 2026-05-04 15:58 | 42.68098 | 14.00854 | 33629 ft | 484 kts | 63° |
| 2026-05-04 15:58 | 42.69439 | 14.05047 | 33356 ft | 484 kts | 63° |
| 2026-05-04 15:59 | 42.70779 | 14.09245 | 33082 ft | 484 kts | 63° |
| 2026-05-04 15:59 | 42.72119 | 14.13447 | 32824 ft | 484 kts | 64° |
| 2026-05-04 15:59 | 42.73457 | 14.17645 | 32576 ft | 484 kts | 64° |
| 2026-05-04 15:59 | 42.74781 | 14.21793 | 32284 ft | 484 kts | 64° |
| 2026-05-04 16:00 | 42.76115 | 14.25983 | 31905 ft | 481 kts | 65° |
| 2026-05-04 16:00 | 42.77440 | 14.30154 | 31527 ft | 480 kts | 65° |
| 2026-05-04 16:00 | 42.78763 | 14.34331 | 31156 ft | 480 kts | 65° |
| 2026-05-04 16:00 | 42.80080 | 14.38503 | 30782 ft | 480 kts | 65° |
| 2026-05-04 16:01 | 42.81395 | 14.42675 | 30293 ft | 479 kts | 66° |
| 2026-05-04 16:01 | 42.82710 | 14.46844 | 29641 ft | 479 kts | 66° |
| 2026-05-04 16:01 | 42.84023 | 14.51017 | 28978 ft | 480 kts | 66° |
| 2026-05-04 16:01 | 42.85337 | 14.55193 | 28326 ft | 479 kts | 66° |
| 2026-05-04 16:02 | 42.86640 | 14.59348 | 27680 ft | 475 kts | 66° |
| 2026-05-04 16:02 | 42.87932 | 14.63470 | 27044 ft | 471 kts | 66° |
| 2026-05-04 16:02 | 42.90472 | 14.71604 | 25784 ft | 462 kts | 66° |
| 2026-05-04 16:03 | 42.91723 | 14.75627 | 25133 ft | 459 kts | 66° |
| 2026-05-04 16:03 | 42.92964 | 14.79625 | 24455 ft | 456 kts | 66° |
| 2026-05-04 16:03 | 42.94196 | 14.83600 | 23761 ft | 454 kts | 66° |
| 2026-05-04 16:03 | 42.95422 | 14.87556 | 22966 ft | 452 kts | 66° |
| 2026-05-04 16:04 | 42.96643 | 14.91493 | 22171 ft | 450 kts | 66° |
| 2026-05-04 16:04 | 42.99040 | 14.99246 | 20678 ft | 432 kts | 67° |
| 2026-05-04 16:04 | 43.00195 | 15.02987 | 20075 ft | 422 kts | 67° |
| 2026-05-04 16:05 | 43.01328 | 15.06660 | 19609 ft | 417 kts | 68° |
| 2026-05-04 16:05 | 43.02449 | 15.10305 | 19374 ft | 415 kts | 68° |
| 2026-05-04 16:05 | 43.04642 | 15.17463 | 18536 ft | 403 kts | 68° |
| 2026-05-04 16:06 | 43.05723 | 15.20978 | 17992 ft | 399 kts | 68° |
| 2026-05-04 16:06 | 43.08901 | 15.30061 | 16671 ft | 396 kts | 64° |
| 2026-05-04 16:07 | 43.10572 | 15.34534 | 16022 ft | 393 kts | 64° |
| 2026-05-04 16:07 | 43.14196 | 15.44471 | 14549 ft | 385 kts | 65° |
| 2026-05-04 16:08 | 43.15370 | 15.47753 | 14062 ft | 383 kts | 65° |
| 2026-05-04 16:08 | 43.18817 | 15.57425 | 12598 ft | 374 kts | 65° |
| 2026-05-04 16:09 | 43.21074 | 15.63791 | 11650 ft | 369 kts | 65° |
| 2026-05-04 16:09 | 43.23290 | 15.70051 | 10868 ft | 357 kts | 65° |
| 2026-05-04 16:10 | 43.25369 | 15.75924 | 10621 ft | 328 kts | 65° |
| 2026-05-04 16:11 | 43.28198 | 15.83937 | 10255 ft | 295 kts | 65° |
| 2026-05-04 16:11 | 43.29080 | 15.86435 | 10133 ft | 285 kts | 65° |
| 2026-05-04 16:12 | 43.30399 | 15.93878 | 9473 ft | 264 kts | 99° |
| 2026-05-04 16:12 | 43.28453 | 16.00836 | 8426 ft | 259 kts | 114° |
| 2026-05-04 16:13 | 43.26994 | 16.05353 | 7741 ft | 256 kts | 114° |
| 2026-05-04 16:13 | 43.25595 | 16.09706 | 7285 ft | 245 kts | 114° |
| 2026-05-04 16:14 | 43.25010 | 16.14064 | 6868 ft | 232 kts | 78° |
| 2026-05-04 16:14 | 43.26670 | 16.17666 | 6246 ft | 229 kts | 35° |
| 2026-05-04 16:15 | 43.30825 | 16.20935 | 5280 ft | 229 kts | 29° |
| 2026-05-04 16:16 | 43.33557 | 16.23067 | 4916 ft | 219 kts | 28° |
| 2026-05-04 16:16 | 43.37292 | 16.25982 | 4550 ft | 189 kts | 28° |
| 2026-05-04 16:17 | 43.39487 | 16.27818 | 4079 ft | 184 kts | 39° |
| 2026-05-04 16:18 | 43.42301 | 16.31342 | 3295 ft | 182 kts | 40° |
| 2026-05-04 16:18 | 43.43236 | 16.32462 | 3137 ft | 173 kts | 39° |
| 2026-05-04 16:19 | 43.45770 | 16.35460 | 2680 ft | 149 kts | 39° |
| 2026-05-04 16:19 | 43.47324 | 16.37355 | 2259 ft | 150 kts | 41° |
| 2026-05-04 16:20 | 43.49706 | 16.40148 | 1690 ft | 151 kts | 33° |
| 2026-05-04 16:20 | 43.51595 | 16.41279 | 1303 ft | 147 kts | 8° |
| 2026-05-04 16:21 | 43.54290 | 16.39933 | 1079 ft | 140 kts | 315° |
| 2026-05-04 16:22 | 43.55403 | 16.37808 | 981 ft | 137 kts | 291° |
| 2026-05-04 16:22 | 43.55689 | 16.34023 | 575 ft | 132 kts | 257° |
| 2026-05-04 16:23 | 43.54403 | 16.30720 | 70 ft | 129 kts | 233° |
| 2026-05-04 16:24 | 43.53697 | 16.29546 | 70 ft | 0 kts | 94° |
| 2026-05-04 16:26 | 43.53699 | 16.29691 | 62 ft | 11 kts | 48° |
| 2026-05-04 16:26 | 43.53750 | 16.29791 | 68 ft | 3 kts | 81° |
| 2026-05-04 16:27 | 43.53738 | 16.29836 | 64 ft | 3 kts | 114° |
| 2026-05-04 16:28 | 43.53727 | 16.29870 | 63 ft | 0 kts | 115° |
| 2026-05-04 16:28 | 43.53726 | 16.29872 | 64 ft | 0 kts | 114° |